Time;durP1;ratioP1;P1;durP2;ratioP2;P2;SDS_P1;SDS_P2;PMS_P1;PMS_P2;Temp;Humidity;BMP_temperature;BMP_pressure;BME280_temperature;BME280_humidity;BME280_pressure;Samples;Min_cycle;Max_cycle;Signal;HPM_P1;HPM_P2
2021/04/13 00:00:29;;;;;;;47.85;23.32;;;;;;;3.14;81.45;101734.14;1659234;84;26514;-59
2021/04/13 00:03:04;;;;;;;44.80;21.90;;;;;;;3.14;81.46;101731.50;1671894;84;25757;-60
2021/04/13 00:05:43;;;;;;;36.28;19.42;;;;;;;3.12;81.46;101729.28;1673121;83;25850;-60
2021/04/13 00:08:20;;;;;;;40.52;22.13;;;;;;;3.13;81.46;101732.38;1617569;85;25859;-60
2021/04/13 00:10:53;;;;;;;40.70;21.30;;;;;;;3.13;81.53;101729.28;1635457;86;25936;-60
2021/04/13 00:13:25;;;;;;;39.95;20.97;;;;;;;3.14;81.52;101730.17;1665225;83;25868;-60
2021/04/13 00:15:58;;;;;;;44.10;21.73;;;;;;;3.12;81.52;101731.92;1645891;84;25787;-60
2021/04/13 00:18:29;;;;;;;37.30;20.20;;;;;;;3.11;81.50;101733.69;1645866;84;28001;-60
2021/04/13 00:21:05;;;;;;;42.67;20.77;;;;;;;3.12;81.54;101733.25;1665192;83;26588;-61
2021/04/13 00:23:34;;;;;;;35.85;19.10;;;;;;;3.11;81.56;101735.45;1664948;83;25767;-59
2021/04/13 00:26:09;;;;;;;37.93;19.77;;;;;;;3.10;81.50;101733.25;1646591;83;26128;-61
2021/04/13 00:28:49;;;;;;;37.08;20.27;;;;;;;3.10;81.58;101729.71;1668782;83;25862;-60
2021/04/13 00:34:14;;;;;;;38.17;19.45;;;;;;;3.10;81.59;101738.98;1643528;84;26362;-58
2021/04/13 00:36:44;;;;;;;40.70;19.77;;;;;;;3.08;81.57;101732.80;1648306;86;26685;-59
2021/04/13 00:39:26;;;;;;;36.08;19.37;;;;;;;3.06;81.63;101729.25;1651734;83;26024;-59
2021/04/13 00:42:04;;;;;;;41.83;20.40;;;;;;;3.07;81.63;101735.88;1648746;85;25819;-59
2021/04/13 00:44:37;;;;;;;36.83;18.85;;;;;;;3.06;81.66;101734.55;1661839;85;26517;-59
2021/04/13 00:47:19;;;;;;;40.88;19.60;;;;;;;3.05;81.63;101728.36;1677541;83;26275;-59
2021/04/13 00:49:55;;;;;;;42.23;20.60;;;;;;;3.05;81.67;101728.36;1653604;83;25989;-59
2021/04/13 00:52:31;;;;;;;44.30;21.07;;;;;;;3.05;81.68;101734.09;1676816;83;26154;-59
2021/04/13 00:55:04;;;;;;;42.40;19.75;;;;;;;3.04;81.71;101727.92;1647960;83;25807;-59
2021/04/13 00:57:44;;;;;;;37.78;18.57;;;;;;;3.05;81.75;101723.51;1657948;83;25827;-59
2021/04/13 01:00:22;;;;;;;35.65;17.62;;;;;;;3.05;81.72;101724.83;1646270;83;26489;-59
2021/04/13 01:03:00;;;;;;;31.15;16.70;;;;;;;3.03;81.71;101723.50;1655715;83;25808;-59
2021/04/13 01:05:41;;;;;;;34.00;16.93;;;;;;;3.02;81.72;101730.11;1660695;84;44605;-59
2021/04/13 01:08:37;;;;;;;31.05;17.12;;;;;;;3.01;81.75;101725.70;1652275;83;25952;-59
2021/04/13 01:11:10;;;;;;;38.08;19.48;;;;;;;3.02;81.80;101726.14;1618059;85;27417;-59
2021/04/13 01:13:54;;;;;;;33.38;17.27;;;;;;;3.02;81.80;101730.11;1681829;83;25891;-59
2021/04/13 01:16:29;;;;;;;32.98;17.48;;;;;;;3.03;81.79;101733.20;1679751;83;25838;-60
2021/04/13 01:19:03;;;;;;;37.70;18.35;;;;;;;3.03;81.79;101729.23;1662017;83;26295;-59
2021/04/13 01:21:43;;;;;;;35.33;16.75;;;;;;;3.02;81.79;101731.44;1661569;83;25831;-59
2021/04/13 01:24:28;;;;;;;33.20;17.32;;;;;;;3.02;81.84;101733.65;1653095;83;27869;-59
2021/04/13 01:26:57;;;;;;;29.98;15.88;;;;;;;3.02;81.82;101735.41;1650231;85;25922;-59
2021/04/13 01:29:28;;;;;;;37.00;16.80;;;;;;;2.98;81.78;101737.59;1677283;83;26177;-59
2021/04/13 01:32:00;;;;;;;41.42;18.90;;;;;;;2.97;81.85;101727.88;1646724;84;26355;-59
2021/04/13 01:34:46;;;;;;;35.15;17.42;;;;;;;2.99;81.86;101724.80;1676163;83;25818;-59
2021/04/13 01:38:15;;;;;;;40.48;19.55;;;;;;;2.97;81.86;101728.77;1645632;83;27896;-59
2021/04/13 01:39:56;;;;;;;;;;;;;;;2.96;81.86;101727.00;1635768;83;26441;-59
2021/04/13 01:42:23;;;;;;;33.78;17.48;;;;;;;2.96;81.96;101723.46;1680691;83;26069;-59
2021/04/13 01:44:57;;;;;;;34.30;19.05;;;;;;;2.96;81.97;101727.44;1644132;84;25894;-59
2021/04/13 01:47:26;;;;;;;38.92;20.08;;;;;;;3.00;81.95;101727.45;1645247;85;26538;-59
2021/04/13 01:49:58;;;;;;;34.95;18.73;;;;;;;2.99;81.89;101719.50;1647949;83;27398;-59
2021/04/13 01:52:31;;;;;;;44.15;23.47;;;;;;;2.98;81.90;101719.95;1662796;83;26752;-59
2021/04/13 01:55:18;;;;;;;51.10;25.32;;;;;;;3.01;81.92;101723.05;1617905;85;26058;-59
2021/04/13 01:58:14;;;;;;;45.80;23.05;;;;;;;3.02;81.92;101731.44;1627185;86;26226;-59
2021/04/13 02:00:52;;;;;;;47.65;25.32;;;;;;;3.03;81.91;101729.23;1648902;85;25924;-59
2021/04/13 02:03:43;;;;;;;60.48;27.30;;;;;;;3.02;81.89;101723.49;1627000;85;26434;-58
2021/04/13 02:06:19;;;;;;;57.03;29.95;;;;;;;3.02;81.85;101728.79;1668075;83;26547;-59
2021/04/13 02:08:54;;;;;;;58.25;30.90;;;;;;;3.00;81.85;101724.81;1631456;85;26375;-59
2021/04/13 02:11:32;;;;;;;56.55;28.62;;;;;;;3.01;81.86;101727.02;1646740;83;26986;-59
2021/04/13 02:14:13;;;;;;;46.05;22.67;;;;;;;3.00;81.82;101733.19;1660309;83;26179;-59
2021/04/13 02:16:52;;;;;;;35.73;18.87;;;;;;;2.97;81.80;101731.41;1667549;83;27939;-59
2021/04/13 02:19:24;;;;;;;32.55;17.52;;;;;;;2.97;81.82;101729.20;1640788;85;25992;-59
2021/04/13 02:22:00;;;;;;;34.65;15.75;;;;;;;2.95;81.80;101730.52;1650613;85;25809;-59
2021/04/13 02:24:33;;;;;;;39.27;15.75;;;;;;;2.94;81.81;101728.75;1656753;84;26217;-59
2021/04/13 02:27:09;;;;;;;34.45;15.13;;;;;;;2.93;81.77;101724.33;1647572;83;25869;-58
2021/04/13 02:29:42;;;;;;;32.00;14.73;;;;;;;2.91;81.80;101732.27;1680493;84;27583;-59
2021/04/13 02:32:18;;;;;;;31.40;15.20;;;;;;;2.89;81.82;101731.38;1660083;83;25834;-59
2021/04/13 02:34:50;;;;;;;30.30;14.58;;;;;;;2.89;81.83;101735.34;1673503;83;25917;-59
2021/04/13 02:37:40;;;;;;;30.82;16.45;;;;;;;2.85;81.82;101733.56;1646408;85;25979;-59
2021/04/13 02:40:31;;;;;;;26.68;12.88;;;;;;;2.86;81.84;101731.36;1646435;85;25822;-59
2021/04/13 02:43:14;;;;;;;24.12;12.28;;;;;;;2.84;81.83;101734.44;1671055;84;25948;-59
2021/04/13 02:45:49;;;;;;;23.62;11.75;;;;;;;2.83;81.84;101730.02;1658976;83;26326;-59
2021/04/13 02:48:30;;;;;;;31.33;14.75;;;;;;;2.82;81.87;101721.63;1676902;83;26343;-59
2021/04/13 02:51:08;;;;;;;25.65;13.20;;;;;;;2.82;81.88;101728.25;1663461;84;26044;-59
2021/04/13 02:53:50;;;;;;;21.45;10.50;;;;;;;2.82;81.87;101736.62;1675288;83;25848;-59
2021/04/13 02:56:26;;;;;;;28.15;13.32;;;;;;;2.81;81.85;101730.45;1625584;85;28514;-59
2021/04/13 02:59:16;;;;;;;24.10;11.65;;;;;;;2.79;81.86;101732.20;1653126;85;25847;-59
2021/04/13 03:02:10;;;;;;;24.15;11.45;;;;;;;2.79;81.84;101732.20;1632650;85;25892;-60
2021/04/13 03:04:43;;;;;;;17.98;10.50;;;;;;;2.77;81.89;101732.63;1650282;85;26097;-60
2021/04/13 03:07:21;;;;;;;21.25;10.00;;;;;;;2.77;81.94;101738.36;1662367;83;25825;-59
2021/04/13 03:09:54;;;;;;;23.18;11.05;;;;;;;2.76;81.92;101732.18;1680764;83;25919;-60
2021/04/13 03:12:24;;;;;;;19.23;10.18;;;;;;;2.76;81.91;101736.16;1676930;83;26928;-60
2021/04/13 03:14:56;;;;;;;19.32;9.50;;;;;;;2.76;81.89;101732.63;1642144;85;25899;-60
2021/04/13 03:17:28;;;;;;;19.73;9.83;;;;;;;2.75;81.89;101733.50;1674634;83;26689;-59
2021/04/13 03:20:07;;;;;;;21.82;10.10;;;;;;;2.74;81.89;101739.67;1654648;85;25847;-60
2021/04/13 03:22:38;;;;;;;16.73;9.53;;;;;;;2.72;81.85;101738.33;1676303;83;26213;-60
2021/04/13 03:25:12;;;;;;;26.77;10.70;;;;;;;2.70;81.89;101736.11;1652375;85;25861;-60
2021/04/13 03:27:46;;;;;;;19.42;9.58;;;;;;;2.69;81.87;101729.05;1664924;84;25901;-60
2021/04/13 03:30:22;;;;;;;18.45;9.23;;;;;;;2.70;81.88;101733.47;1653697;83;25882;-60
2021/04/13 03:33:04;;;;;;;20.35;8.65;;;;;;;2.69;81.83;101732.14;1680406;84;25863;-61
2021/04/13 03:35:35;;;;;;;19.62;8.93;;;;;;;2.69;81.84;101738.75;1650767;85;26577;-60
2021/04/13 03:38:08;;;;;;;22.30;8.40;;;;;;;2.68;81.82;101727.72;1653195;83;26613;-59
2021/04/13 03:40:40;;;;;;;15.15;7.80;;;;;;;2.68;81.82;101736.55;1653755;85;26580;-60
2021/04/13 03:43:11;;;;;;;20.85;8.60;;;;;;;2.67;81.80;101736.09;1684507;83;26096;-59
2021/04/13 03:45:40;;;;;;;17.73;8.08;;;;;;;2.66;81.76;101742.70;1654390;85;25915;-59
2021/04/13 03:48:16;;;;;;;19.92;7.03;;;;;;;2.64;81.78;101744.02;1653425;83;25864;-60
2021/04/13 03:50:45;;;;;;;16.00;6.80;;;;;;;2.62;81.79;101741.80;1652924;85;26499;-60
2021/04/13 03:53:16;;;;;;;13.03;6.30;;;;;;;2.61;81.73;101744.00;1680157;83;26768;-59
2021/04/13 03:56:02;;;;;;;;;;;;;;;2.59;81.71;101742.70;1678304;83;26140;-60
2021/04/13 03:58:35;;;;;;;16.97;7.60;;;;;;;2.59;81.65;101745.78;1667843;84;25859;-60
2021/04/13 04:01:05;;;;;;;12.65;6.47;;;;;;;2.57;81.67;101745.77;1667280;84;25897;-60
2021/04/13 04:03:40;;;;;;;15.93;7.15;;;;;;;2.57;81.61;101745.77;1654018;85;26001;-60
2021/04/13 04:06:05;;;;;;;12.10;6.58;;;;;;;2.56;81.58;101748.41;1644318;84;26507;-60
2021/04/13 04:08:46;;;;;;;20.70;6.85;;;;;;;2.55;81.56;101747.52;1653662;83;26135;-59
2021/04/13 04:11:11;;;;;;;14.87;7.12;;;;;;;2.56;81.55;101746.64;1652591;83;25926;-59
2021/04/13 04:13:49;;;;;;;13.18;6.78;;;;;;;2.54;81.50;101747.51;1657364;85;27725;-60
2021/04/13 04:16:30;;;;;;;12.85;7.72;;;;;;;2.55;81.49;101749.28;1654637;83;25930;-59
2021/04/13 04:19:15;;;;;;;18.23;7.28;;;;;;;2.57;81.50;101748.86;1682198;83;25951;-59
2021/04/13 04:22:06;;;;;;;11.90;6.87;;;;;;;2.56;81.43;101757.23;1677496;83;25936;-60
2021/04/13 04:24:41;;;;;;;14.25;7.35;;;;;;;2.54;81.40;101752.37;1666791;84;26321;-59
2021/04/13 04:27:20;;;;;;;17.77;7.97;;;;;;;2.55;81.39;101758.55;1658225;83;27592;-59
2021/04/13 04:29:53;;;;;;;18.90;6.42;;;;;;;2.58;81.40;101755.48;1659219;84;25966;-59
2021/04/13 04:32:32;;;;;;;14.68;6.90;;;;;;;2.59;81.37;101764.31;1652618;84;25942;-59
2021/04/13 04:35:05;;;;;;;11.78;5.90;;;;;;;2.52;81.30;101750.58;1677212;84;26100;-59
2021/04/13 04:37:50;;;;;;;14.90;6.53;;;;;;;2.57;81.31;101764.30;1641220;84;26346;-58
2021/04/13 04:40:35;;;;;;;15.93;6.60;;;;;;;2.57;81.24;101768.27;1617864;83;27827;-58
2021/04/13 04:43:08;;;;;;;13.10;7.25;;;;;;;2.57;81.24;101776.20;1650413;83;25973;-59
2021/04/13 04:45:47;;;;;;;20.05;7.25;;;;;;;2.57;81.18;101782.83;1667799;84;25877;-58
2021/04/13 04:48:29;;;;;;;10.93;5.67;;;;;;;2.57;81.16;101787.23;1677751;83;26273;-57
2021/04/13 04:51:06;;;;;;;14.10;6.70;;;;;;;2.56;81.13;101781.05;1676768;84;25922;-63
2021/04/13 04:53:36;;;;;;;10.15;5.50;;;;;;;2.55;81.11;101784.57;1671523;84;27628;-61
2021/04/13 04:56:08;;;;;;;15.35;6.08;;;;;;;2.57;81.08;101789.44;1653376;83;25812;-60
2021/04/13 04:58:39;;;;;;;14.13;6.12;;;;;;;2.58;81.03;101789.89;1684301;83;25877;-61
2021/04/13 05:01:53;;;;;;;12.85;6.80;;;;;;;2.64;81.01;101796.06;1670195;83;25764;-62
2021/04/13 05:04:21;;;;;;;14.85;6.22;;;;;;;2.65;80.95;101797.41;1623072;85;26538;-61
2021/04/13 05:06:48;;;;;;;16.17;6.37;;;;;;;2.67;80.87;101803.59;1651750;83;27874;-62
2021/04/13 05:09:16;;;;;;;11.65;6.65;;;;;;;2.71;80.85;101801.86;1620880;85;25788;-62
2021/04/13 05:11:45;;;;;;;14.10;6.42;;;;;;;2.73;80.84;101804.08;1650298;83;26707;-61
2021/04/13 05:14:13;;;;;;;15.23;6.75;;;;;;;2.75;80.75;101799.68;1662347;83;26653;-62
2021/04/13 05:16:41;;;;;;;15.38;7.20;;;;;;;2.77;80.75;101803.22;1651551;84;25857;-61
2021/04/13 05:19:10;;;;;;;13.55;6.28;;;;;;;2.78;80.71;101808.97;1655527;83;25976;-61
2021/04/13 05:21:38;;;;;;;16.82;6.58;;;;;;;2.78;80.67;101800.59;1648409;83;25847;-61
2021/04/13 05:24:10;;;;;;;11.97;5.83;;;;;;;2.78;80.62;101813.83;1650151;83;25701;-62
2021/04/13 05:26:42;;;;;;;13.10;6.08;;;;;;;2.75;80.53;101808.95;1676022;84;25612;-61
2021/04/13 05:29:10;;;;;;;13.70;5.47;;;;;;;2.73;80.50;101809.37;1663721;83;25920;-61
2021/04/13 05:31:40;;;;;;;11.25;5.53;;;;;;;2.69;80.47;101812.44;1647821;84;27429;-61
2021/04/13 05:34:10;;;;;;;16.80;6.30;;;;;;;2.65;80.42;101813.28;1649652;83;25895;-61
2021/04/13 05:36:41;;;;;;;11.08;5.90;;;;;;;2.62;80.42;101810.61;1646515;83;26025;-61
2021/04/13 05:39:10;;;;;;;9.80;5.72;;;;;;;2.60;80.39;101814.57;1665693;83;26361;-61
2021/04/13 05:41:39;;;;;;;15.98;5.78;;;;;;;2.59;80.36;101815.48;1651106;85;26405;-62
2021/04/13 05:44:07;;;;;;;17.32;8.13;;;;;;;2.58;80.33;101819.44;1676011;83;27379;-62
2021/04/13 05:46:35;;;;;;;27.77;14.98;;;;;;;2.56;80.31;101823.83;1650365;85;25799;-62
2021/04/13 05:49:04;;;;;;;13.45;5.55;;;;;;;2.54;80.25;101818.53;1626127;83;25768;-62
2021/04/13 05:51:34;;;;;;;10.15;5.83;;;;;;;2.55;80.19;101820.30;1649660;85;25913;-61
2021/04/13 05:54:02;;;;;;;13.90;5.37;;;;;;;2.53;80.12;101828.66;1651539;83;25850;-61
2021/04/13 05:56:35;;;;;;;15.45;6.30;;;;;;;2.49;80.05;101822.89;1651651;84;27359;-61
2021/04/13 05:59:06;;;;;;;10.80;6.37;;;;;;;2.51;80.02;101825.12;1646531;83;26207;-60
2021/04/13 06:01:36;;;;;;;17.32;6.17;;;;;;;2.51;80.04;101825.55;1672432;84;26002;-61
2021/04/13 06:04:06;;;;;;;13.13;5.28;;;;;;;2.55;80.02;101828.67;1649369;83;25960;-57
2021/04/13 06:06:36;;;;;;;11.15;6.00;;;;;;;2.56;79.98;101834.42;1626374;85;26463;-62
2021/04/13 06:09:06;;;;;;;11.53;5.67;;;;;;;2.58;79.96;101834.00;1647133;83;27803;-61
2021/04/13 06:11:34;;;;;;;13.08;6.00;;;;;;;2.64;79.95;101825.19;1656708;84;25897;-64
2021/04/13 06:14:03;;;;;;;17.07;5.75;;;;;;;2.65;79.85;101827.84;1660293;83;25994;-61
2021/04/13 06:16:39;;;;;;;18.23;7.10;;;;;;;2.71;79.89;101831.86;1667735;83;25502;-62
2021/04/13 06:19:04;;;;;;;16.40;6.12;;;;;;;2.75;79.87;101834.98;1660070;83;26077;-62
2021/04/13 06:21:34;;;;;;;62.00;24.25;;;;;;;2.81;79.84;101832.82;1661625;83;28184;-62
2021/04/13 06:24:02;;;;;;;68.12;10.75;;;;;;;2.88;79.88;101828.02;1687318;83;25820;-62
2021/04/13 06:26:30;;;;;;;12.33;5.22;;;;;;;2.93;79.77;101827.61;1685069;83;25948;-64
2021/04/13 06:28:58;;;;;;;11.05;5.62;;;;;;;3.01;79.72;101828.98;1649390;83;26696;-62
2021/04/13 06:31:26;;;;;;;22.90;6.30;;;;;;;3.03;79.66;101832.53;1656405;84;25882;-64
2021/04/13 06:33:54;;;;;;;13.98;5.25;;;;;;;3.07;79.58;101831.23;1655256;83;27866;-65
2021/04/13 06:36:24;;;;;;;28.50;6.83;;;;;;;3.10;79.52;101827.28;1686531;83;26126;-67
2021/04/13 06:38:53;;;;;;;11.10;5.30;;;;;;;3.16;79.53;101836.59;1637426;84;25958;-59
2021/04/13 06:42:07;;;;;;;14.60;6.12;;;;;;;3.19;79.32;101835.72;1663145;83;26676;-61
2021/04/13 06:45:00;;;;;;;13.03;4.87;;;;;;;3.18;79.26;101836.59;1676753;83;25854;-60
2021/04/13 06:47:47;;;;;;;8.55;4.70;;;;;;;3.20;79.21;101832.20;1694874;83;28178;-60
2021/04/13 06:50:38;;;;;;;10.43;4.67;;;;;;;3.24;79.06;101830.89;1681319;83;26293;-59
2021/04/13 06:53:34;;;;;;;10.53;5.08;;;;;;;3.36;78.92;101834.05;1661839;83;25949;-58
2021/04/13 06:56:43;;;;;;;12.60;5.62;;;;;;;3.36;78.92;101834.05;1683259;83;26132;-58
2021/04/13 06:59:52;;;;;;;11.08;5.00;;;;;;;3.39;78.77;101846.44;1632941;85;26439;-58
2021/04/13 07:02:43;;;;;;;10.48;5.97;;;;;;;3.43;78.65;101842.48;1586509;88;27691;-58
2021/04/13 07:05:16;;;;;;;15.93;5.67;;;;;;;3.45;78.60;101849.11;1613108;87;28214;-61
2021/04/13 07:08:08;;;;;;;14.05;6.08;;;;;;;3.51;78.63;101855.33;1639751;85;25940;-61
2021/04/13 07:10:46;;;;;;;13.78;5.45;;;;;;;3.57;78.66;101852.71;1630126;85;26578;-59
2021/04/13 07:13:25;;;;;;;21.30;6.20;;;;;;;3.65;78.62;101859.81;1629595;85;25838;-60
2021/04/13 07:16:19;;;;;;;11.78;5.47;;;;;;;3.71;78.60;101866.47;1629980;85;27640;-59
2021/04/13 07:19:20;;;;;;;14.98;5.80;;;;;;;3.77;78.56;101862.08;1663302;85;26507;-59
2021/04/13 07:22:23;;;;;;;10.75;5.25;;;;;;;3.84;78.52;101861.66;1632159;85;26094;-58
2021/04/13 07:25:02;;;;;;;14.25;5.45;;;;;;;3.94;78.54;101865.23;1659718;85;26067;-58
2021/04/13 07:27:48;;;;;;;17.45;6.20;;;;;;;4.05;78.43;101864.82;1697807;83;26045;-57
2021/04/13 07:30:22;;;;;;;20.70;6.08;;;;;;;4.12;78.29;101877.22;1689367;83;27458;-58
2021/04/13 07:32:57;;;;;;;14.23;5.95;;;;;;;4.17;78.19;101872.38;1670143;84;26217;-58
2021/04/13 07:35:30;;;;;;;18.65;6.53;;;;;;;4.23;78.16;101880.35;1663638;83;25902;-58
2021/04/13 07:38:04;;;;;;;17.02;5.95;;;;;;;4.23;77.99;101880.35;1694957;83;26101;-60
2021/04/13 07:40:39;;;;;;;12.58;6.08;;;;;;;4.22;77.94;101877.25;1674207;85;26052;-61
2021/04/13 07:43:28;;;;;;;40.52;18.30;;;;;;;4.24;77.87;101882.13;1683178;83;27427;-61
2021/04/13 07:46:28;;;;;;;13.22;6.22;;;;;;;4.19;77.67;101881.23;1640488;83;26121;-62
2021/04/13 07:49:14;;;;;;;16.93;5.85;;;;;;;4.20;77.47;101880.34;1688894;83;26448;-62
2021/04/13 07:51:50;;;;;;;15.65;6.08;;;;;;;4.26;77.42;101877.26;1684348;83;26219;-63
2021/04/13 07:54:45;;;;;;;21.48;5.33;;;;;;;4.31;77.39;101875.50;1680020;83;26439;-62
2021/04/13 07:57:49;;;;;;;12.33;5.20;;;;;;;4.36;77.31;101876.39;1659772;83;27614;-62
2021/04/13 08:00:28;;;;;;;12.18;5.70;;;;;;;4.42;77.18;101869.77;1680980;82;25874;-62
2021/04/13 08:03:23;;;;;;;17.57;5.60;;;;;;;4.47;76.99;101867.56;1668296;83;25949;-63
2021/04/13 08:05:58;;;;;;;16.77;5.62;;;;;;;4.52;77.06;101864.47;1668040;84;26073;-63
2021/04/13 08:08:41;;;;;;;11.73;5.55;;;;;;;4.65;77.10;101863.16;1658125;83;25988;-62
2021/04/13 08:11:14;;;;;;;14.50;6.35;;;;;;;4.73;77.05;101858.73;1686076;83;27912;-62
2021/04/13 08:13:49;;;;;;;28.98;6.05;;;;;;;4.83;76.92;101854.74;1671521;83;25921;-66
2021/04/13 08:16:36;;;;;;;12.78;5.42;;;;;;;4.97;76.92;101856.50;1676847;83;25906;-64
2021/04/13 08:19:33;;;;;;;11.53;5.47;;;;;;;5.13;76.72;101858.25;1674425;83;26223;-62
2021/04/13 08:22:09;;;;;;;11.60;5.65;;;;;;;5.33;76.54;101861.72;1697967;83;25880;-62
2021/04/13 08:24:57;;;;;;;12.90;5.03;;;;;;;5.50;76.40;101854.59;1683537;84;28443;-62
2021/04/13 08:27:47;;;;;;;16.17;5.12;;;;;;;5.73;76.23;101847.84;1671859;83;25802;-63
2021/04/13 08:30:29;;;;;;;8.35;4.05;;;;;;;5.84;75.92;101837.16;1672371;83;25920;-63
2021/04/13 08:33:08;;;;;;;12.40;4.42;;;;;;;6.00;75.65;101832.67;1697678;83;25934;-63
2021/04/13 08:36:16;;;;;;;7.05;3.80;;;;;;;6.17;75.47;101833.46;1677385;83;25907;-63
2021/04/13 08:38:58;;;;;;;6.70;3.08;;;;;;;6.27;75.20;101836.50;1666373;83;28686;-62
2021/04/13 08:41:45;;;;;;;11.30;3.90;;;;;;;6.30;74.79;101835.59;1650688;85;26677;-63
2021/04/13 08:44:40;;;;;;;5.67;3.00;;;;;;;6.25;74.15;101838.73;1682716;83;26634;-66
2021/04/13 08:47:22;;;;;;;12.05;3.42;;;;;;;6.23;73.80;101839.19;1663962;83;25805;-66
2021/04/13 08:49:57;;;;;;;9.13;2.87;;;;;;;6.25;73.29;101839.63;1669619;84;25820;-66
2021/04/13 08:52:47;;;;;;;9.45;3.37;;;;;;;6.13;72.06;101841.91;1653852;84;27884;-64
2021/04/13 08:55:23;;;;;;;8.38;2.98;;;;;;;6.08;71.85;101830.41;1651003;83;25932;-67
2021/04/13 08:58:26;;;;;;;9.08;2.75;;;;;;;6.12;71.12;101840.14;1650177;85;26633;-66
2021/04/13 09:00:56;;;;;;;2.45;1.67;;;;;;;6.11;69.79;101847.69;1651101;84;26145;-66
2021/04/13 09:03:41;;;;;;;3.65;1.40;;;;;;;6.00;67.20;101850.86;1650712;85;25809;-66
2021/04/13 09:06:18;;;;;;;6.72;1.77;;;;;;;5.92;68.03;101836.70;1657816;83;27704;-65
2021/04/13 09:09:00;;;;;;;4.87;2.42;;;;;;;5.95;68.23;101842.02;1645834;84;26099;-64
2021/04/13 09:11:51;;;;;;;3.20;1.90;;;;;;;6.03;65.86;101838.87;1676232;83;26139;-64
2021/04/13 09:14:50;;;;;;;5.20;2.52;;;;;;;6.04;64.50;101846.41;1669133;83;26448;-65
2021/04/13 09:17:35;;;;;;;6.58;2.60;;;;;;;6.01;65.19;101843.31;1671558;83;25814;-66
2021/04/13 09:20:20;;;;;;;20.77;4.00;;;;;;;6.01;65.15;101843.31;1671779;83;27911;-65
2021/04/13 09:23:06;;;;;;;6.90;2.67;;;;;;;6.08;65.06;101840.17;1669606;84;25799;-64
2021/04/13 09:25:39;;;;;;;14.68;3.37;;;;;;;6.03;63.87;101838.87;1667526;83;25823;-65
2021/04/13 09:28:22;;;;;;;12.95;3.10;;;;;;;5.99;63.70;101839.78;1669726;83;26261;-64
2021/04/13 09:31:04;;;;;;;5.42;2.45;;;;;;;5.96;63.88;101841.56;1662824;83;25934;-65
2021/04/13 09:33:40;;;;;;;5.28;2.62;;;;;;;5.98;64.07;101849.98;1669537;83;26398;-67
2021/04/13 09:36:38;;;;;;;9.88;3.10;;;;;;;5.93;63.21;101834.93;1655526;83;26023;-67
2021/04/13 09:39:37;;;;;;;6.37;3.10;;;;;;;5.92;63.61;101829.17;1665262;84;25914;-66
2021/04/13 09:42:44;;;;;;;11.35;3.47;;;;;;;6.02;62.85;101828.23;1625036;85;26863;-66
2021/04/13 09:45:32;;;;;;;10.40;3.17;;;;;;;6.05;62.93;101830.88;1627442;85;26387;-67
2021/04/13 09:48:32;;;;;;;12.65;3.85;;;;;;;6.10;63.64;101829.95;1583499;85;26237;-66
2021/04/13 09:51:23;;;;;;;12.70;4.97;;;;;;;6.19;63.50;101832.55;1650679;85;26218;-64
2021/04/13 09:54:31;;;;;;;11.83;4.12;;;;;;;6.18;63.56;101832.56;1632366;85;25989;-65
2021/04/13 09:57:34;;;;;;;6.65;2.90;;;;;;;6.17;63.70;101830.35;1647405;85;26842;-66
2021/04/13 10:00:17;;;;;;;5.05;2.72;;;;;;;6.28;63.44;101826.29;1649693;85;26039;-65
2021/04/13 10:03:02;;;;;;;5.58;2.62;;;;;;;6.38;63.29;101834.65;1625458;86;27476;-65
2021/04/13 10:05:38;;;;;;;24.12;4.05;;;;;;;6.38;63.60;101828.44;1645830;85;26439;-66
2021/04/13 10:08:23;;;;;;;5.92;2.37;;;;;;;6.42;63.20;101826.19;1628257;85;26414;-66
2021/04/13 10:11:18;;;;;;;5.05;2.33;;;;;;;6.48;62.38;101820.81;1649234;84;26638;-65
2021/04/13 10:14:20;;;;;;;13.43;2.22;;;;;;;6.50;62.48;101815.03;1646718;84;25879;-64
2021/04/13 10:17:23;;;;;;;3.92;1.12;;;;;;;6.57;62.38;101821.19;1661664;84;27128;-65
2021/04/13 10:20:02;;;;;;;3.60;1.00;;;;;;;6.68;59.64;101817.55;1665638;84;26611;-65
2021/04/13 10:23:09;;;;;;;12.23;1.77;;;;;;;6.67;59.20;101812.23;1642287;84;25959;-66
2021/04/13 10:25:53;;;;;;;10.70;1.60;;;;;;;6.70;58.52;101817.53;1648680;84;26950;-64
2021/04/13 10:28:34;;;;;;;5.33;1.52;;;;;;;6.77;58.13;101813.91;1639142;84;25868;-67
2021/04/13 10:31:50;;;;;;;5.28;1.40;;;;;;;6.80;58.01;101815.22;1674503;84;27735;-66
2021/04/13 10:34:44;;;;;;;3.22;1.52;;;;;;;6.84;58.84;101811.62;1612138;85;25993;-64
2021/04/13 10:37:42;;;;;;;9.28;1.92;;;;;;;6.92;59.09;101804.89;1643798;84;25870;-67
2021/04/13 10:40:51;;;;;;;5.60;1.45;;;;;;;7.03;58.58;101803.00;1626835;85;26603;-67
2021/04/13 10:44:12;;;;;;;5.58;1.42;;;;;;;7.09;57.83;101798.94;1744832;79;25806;-63
2021/04/13 10:47:11;;;;;;;6.40;1.27;;;;;;;7.14;57.00;101807.77;1687082;83;27139;-64
2021/04/13 10:50:28;;;;;;;8.93;1.52;;;;;;;7.20;57.10;101793.49;1744813;80;25743;-66
2021/04/13 10:53:40;;;;;;;6.05;1.52;;;;;;;7.31;57.16;101797.80;1720987;80;25934;-67
2021/04/13 10:56:45;;;;;;;5.12;0.70;;;;;;;7.52;55.32;101800.67;1716113;80;26915;-66
2021/04/13 10:59:36;;;;;;;3.87;0.95;;;;;;;7.54;53.65;101820.66;1741524;80;25896;-65
2021/04/13 11:02:41;;;;;;;;;;;;;;;7.41;51.33;101811.91;1725316;80;27511;-69
2021/04/13 11:06:04;;;;;;;7.40;1.32;;;;;;;7.37;52.66;101781.73;1730772;80;26448;-66
2021/04/13 11:08:57;;;;;;;4.53;1.20;;;;;;;7.49;53.59;101776.25;1751592;80;25823;-66
2021/04/13 11:11:51;;;;;;;9.33;2.02;;;;;;;7.57;52.13;101785.94;1728447;82;26712;-65
2021/04/13 11:15:03;;;;;;;6.17;1.37;;;;;;;7.51;51.86;101786.89;1738796;80;25744;-67
2021/04/13 11:17:57;;;;;;;5.33;1.50;;;;;;;7.46;50.56;101783.41;1717047;82;28579;-67
2021/04/13 11:20:56;;;;;;;8.18;1.80;;;;;;;7.58;50.84;101783.70;1713884;81;25779;-69
2021/04/13 11:23:54;;;;;;;3.55;1.17;;;;;;;7.64;51.90;101779.62;1725827;80;25845;-65
2021/04/13 11:26:43;;;;;;;10.78;1.50;;;;;;;7.72;51.68;101774.61;1747383;80;26205;-66
2021/04/13 11:29:31;;;;;;;8.08;2.98;;;;;;;7.83;52.31;101771.76;1719129;80;26045;-66
2021/04/13 11:32:25;;;;;;;6.37;1.60;;;;;;;7.94;51.63;101776.49;1718415;80;26249;-68
2021/04/13 11:35:23;;;;;;;8.65;1.37;;;;;;;7.89;50.43;101765.00;1743205;80;25875;-66
2021/04/13 11:38:13;;;;;;;4.05;1.32;;;;;;;7.98;51.16;101763.98;1712338;80;25915;-67
2021/04/13 11:41:09;;;;;;;7.62;1.72;;;;;;;8.16;51.78;101770.38;1717483;82;26115;-69
2021/04/13 11:43:52;;;;;;;4.58;1.60;;;;;;;8.26;52.25;101759.09;1717031;81;25818;-68
2021/04/13 11:46:34;;;;;;;5.45;1.35;;;;;;;8.30;51.87;101760.36;1712707;81;27994;-67
2021/04/13 11:49:34;;;;;;;3.25;1.12;;;;;;;8.20;52.30;101757.86;1711784;81;26024;-70
2021/04/13 11:52:22;;;;;;;3.30;1.25;;;;;;;8.25;52.31;101756.00;1706282;81;25810;-68
2021/04/13 11:54:55;;;;;;;7.97;1.20;;;;;;;8.31;49.32;101758.58;1687709;82;26371;-67
2021/04/13 11:57:28;;;;;;;3.98;1.10;;;;;;;8.29;50.28;101771.95;1744782;80;25881;-67
2021/04/13 12:00:20;;;;;;;5.37;1.55;;;;;;;8.30;49.62;101764.83;1738994;80;28863;-65
2021/04/13 12:03:21;;;;;;;4.83;1.47;;;;;;;8.42;50.47;101752.63;1712309;82;26230;-66
2021/04/13 12:05:58;;;;;;;3.83;1.15;;;;;;;8.56;49.81;101757.74;1713606;81;35113;-68
2021/04/13 12:08:38;;;;;;;2.50;1.30;;;;;;;8.53;50.14;101745.77;1714961;81;25848;-67
2021/04/13 12:11:21;;;;;;;4.67;1.32;;;;;;;8.66;50.23;101746.86;1716924;81;25837;-68
2021/04/13 12:13:52;;;;;;;6.05;1.30;;;;;;;8.94;50.73;101732.53;1737066;80;26479;-67
2021/04/13 12:16:42;;;;;;;5.55;1.50;;;;;;;9.25;49.84;101740.83;1739888;80;25869;-67
2021/04/13 12:19:18;;;;;;;3.35;1.30;;;;;;;9.30;49.16;101730.92;1715371;81;25764;-65
2021/04/13 12:21:56;;;;;;;5.50;1.32;;;;;;;9.37;49.76;101740.58;1739620;80;25950;-64
2021/04/13 12:24:42;;;;;;;3.33;1.55;;;;;;;9.44;49.80;101730.62;1710377;81;26911;-63
2021/04/13 12:27:30;;;;;;;3.52;1.45;;;;;;;9.59;49.15;101737.45;1737556;80;28553;-64
2021/04/13 12:30:29;;;;;;;2.17;1.12;;;;;;;9.81;48.89;101718.65;1691236;82;26217;-66
2021/04/13 12:32:56;;;;;;;3.37;1.47;;;;;;;9.76;46.87;101709.84;1715816;81;25941;-66
2021/04/13 12:35:50;;;;;;;7.30;1.82;;;;;;;10.06;47.40;101730.55;1719624;81;26003;-65